Aeroporto :







RITROVATECI SU...

 
LOGIN :

Iscrizione | Disclaimer

   EN    FR    IT 

 









Sommario :    VFR   VFR Marginale   IFR   IFR Intensivo   IFR Molto Intensivo
Visibilità : 
Base nubi : 
>= 8 km
>= 3000ft
5 / 8 km
1000 / 3000 ft
1500m / 5 km
500 / 1000 ft
800 / 1500m
200 / 500 ft
< 800m
< 200 ft
Simboli :   Temporali  Nebbia  Neve Forte  Precipitazioni Forti  Vento > 20 kt






- Altitudine del aeroporto : 141 ft
- Codice IATA : YQI


CYQI - Yarmouth

ULTIMO METAR :
  • 251700Z 08011G18KT 15SM FEW016 BKN260 03/M01 A3034 RMK SF1CI6 SLP276

METARs OBSOLETI :
  • 251640Z 10014KT 15SM SCT016 BKN260 03/M01 A3034 RMK SF3CI4 SLP278
  • 251600Z 10011G17KT 15SM BKN014 BKN250 01/M02 A3038 RMK SF5CI2 SLP290
  • 251500Z 10011KT 15SM OVC011 00/M02 A3041 RMK SF8 SLP301

TAF TAF CYQI
Valido dal 25 a 18 ore il 26 a 06 ore UTC


251738Z 2518/2606 10012KT P6SM FEW015
TEMPO 2518/2522 BKN015
FM252200 10012G22KT P6SM BKN008
TEMPO 2522/2602 SCT008
FM260200 10015G25KT P6SM OVC008 RMK NXT FCST BY 260000Z



MetMap, La meteo Aeronautica in un colpo d'occhio ! - Copyright ORBIFLY Dicembre 2007 - Disclaimer

ORBIFLY MET'MAP TEAM :

Programmazione e sviluppo : Alexandra Zaïnal
Concezione : Baudouin d'Aumeries
Aiuto per la programmazione : Marc-Olivier Méhu
Supporto tecnico e logistico : Manuel Goepfert
Aiuto per la traduzione : Arnaldo La Scala

Contatto : metmap@orbifly.com




FONTI E CREDITI :

   NOAA